sensor_id;sensor_type;location;lat;lon;timestamp;P1;durP1;ratioP1;P2;durP2;ratioP2
73359;SDS011;63092;43.582;19.528;2022-10-16T00:00:30;23.55;;;13.25;;
73359;SDS011;63092;43.582;19.528;2022-10-16T00:02:56;22.58;;;12.05;;
73359;SDS011;63092;43.582;19.528;2022-10-16T00:05:22;21.88;;;12.25;;
73359;SDS011;63092;43.582;19.528;2022-10-16T00:07:48;21.40;;;12.80;;
73359;SDS011;63092;43.582;19.528;2022-10-16T00:10:13;22.67;;;13.25;;
73359;SDS011;63092;43.582;19.528;2022-10-16T00:12:39;22.40;;;13.30;;
73359;SDS011;63092;43.582;19.528;2022-10-16T00:15:05;26.70;;;14.73;;
73359;SDS011;63092;43.582;19.528;2022-10-16T00:17:31;22.50;;;12.82;;
73359;SDS011;63092;43.582;19.528;2022-10-16T00:19:57;25.25;;;13.48;;
73359;SDS011;63092;43.582;19.528;2022-10-16T00:22:23;25.73;;;13.93;;
73359;SDS011;63092;43.582;19.528;2022-10-16T00:24:49;22.90;;;13.25;;
73359;SDS011;63092;43.582;19.528;2022-10-16T00:27:15;23.63;;;12.63;;
73359;SDS011;63092;43.582;19.528;2022-10-16T00:29:41;24.55;;;13.88;;
73359;SDS011;63092;43.582;19.528;2022-10-16T00:32:07;22.85;;;12.43;;
73359;SDS011;63092;43.582;19.528;2022-10-16T00:34:33;24.92;;;13.60;;
73359;SDS011;63092;43.582;19.528;2022-10-16T00:36:59;24.88;;;12.93;;
73359;SDS011;63092;43.582;19.528;2022-10-16T00:39:24;27.10;;;13.25;;
73359;SDS011;63092;43.582;19.528;2022-10-16T00:41:50;20.60;;;12.00;;
73359;SDS011;63092;43.582;19.528;2022-10-16T00:47:15;20.60;;;11.80;;
73359;SDS011;63092;43.582;19.528;2022-10-16T00:50:02;20.88;;;12.50;;
73359;SDS011;63092;43.582;19.528;2022-10-16T00:52:41;17.73;;;11.18;;
73359;SDS011;63092;43.582;19.528;2022-10-16T00:55:11;18.92;;;11.65;;
73359;SDS011;63092;43.582;19.528;2022-10-16T00:57:37;20.58;;;11.40;;
73359;SDS011;63092;43.582;19.528;2022-10-16T01:00:04;19.88;;;10.95;;
73359;SDS011;63092;43.582;19.528;2022-10-16T01:02:32;17.40;;;10.30;;
73359;SDS011;63092;43.582;19.528;2022-10-16T01:04:57;18.70;;;11.02;;
73359;SDS011;63092;43.582;19.528;2022-10-16T01:18:18;21.10;;;11.40;;
73359;SDS011;63092;43.582;19.528;2022-10-16T01:21:12;19.40;;;11.20;;
73359;SDS011;63092;43.582;19.528;2022-10-16T01:26:31;19.25;;;10.77;;
73359;SDS011;63092;43.582;19.528;2022-10-16T01:29:18;20.20;;;12.07;;
73359;SDS011;63092;43.582;19.528;2022-10-16T01:31:53;19.85;;;11.13;;
73359;SDS011;63092;43.582;19.528;2022-10-16T01:34:37;26.83;;;14.60;;
73359;SDS011;63092;43.582;19.528;2022-10-16T01:37:12;30.98;;;14.23;;
73359;SDS011;63092;43.582;19.528;2022-10-16T01:39:42;24.67;;;12.07;;
73359;SDS011;63092;43.582;19.528;2022-10-16T01:42:24;23.40;;;12.80;;
73359;SDS011;63092;43.582;19.528;2022-10-16T01:44:58;24.33;;;11.98;;
73359;SDS011;63092;43.582;19.528;2022-10-16T01:47:25;19.25;;;11.20;;
73359;SDS011;63092;43.582;19.528;2022-10-16T01:49:52;22.17;;;11.73;;
73359;SDS011;63092;43.582;19.528;2022-10-16T01:52:21;21.45;;;12.00;;
73359;SDS011;63092;43.582;19.528;2022-10-16T01:54:50;19.75;;;11.02;;
73359;SDS011;63092;43.582;19.528;2022-10-16T01:57:19;21.88;;;12.57;;
73359;SDS011;63092;43.582;19.528;2022-10-16T01:59:48;23.92;;;12.10;;
73359;SDS011;63092;43.582;19.528;2022-10-16T02:02:17;20.25;;;11.38;;
73359;SDS011;63092;43.582;19.528;2022-10-16T02:04:46;20.77;;;10.77;;
73359;SDS011;63092;43.582;19.528;2022-10-16T02:07:16;23.10;;;10.68;;
73359;SDS011;63092;43.582;19.528;2022-10-16T02:09:42;21.77;;;10.50;;
73359;SDS011;63092;43.582;19.528;2022-10-16T02:14:50;18.15;;;9.77;;
73359;SDS011;63092;43.582;19.528;2022-10-16T02:17:16;16.98;;;9.32;;
73359;SDS011;63092;43.582;19.528;2022-10-16T02:19:43;16.45;;;9.07;;
73359;SDS011;63092;43.582;19.528;2022-10-16T02:22:19;21.33;;;10.32;;
73359;SDS011;63092;43.582;19.528;2022-10-16T02:25:08;22.33;;;11.15;;
73359;SDS011;63092;43.582;19.528;2022-10-16T02:27:43;18.05;;;8.88;;
73359;SDS011;63092;43.582;19.528;2022-10-16T02:30:21;19.80;;;9.43;;
73359;SDS011;63092;43.582;19.528;2022-10-16T02:32:57;20.45;;;9.85;;
73359;SDS011;63092;43.582;19.528;2022-10-16T02:35:27;17.70;;;9.95;;
73359;SDS011;63092;43.582;19.528;2022-10-16T02:37:55;16.63;;;9.85;;
73359;SDS011;63092;43.582;19.528;2022-10-16T02:40:22;17.23;;;9.80;;
73359;SDS011;63092;43.582;19.528;2022-10-16T02:42:50;18.25;;;9.80;;
73359;SDS011;63092;43.582;19.528;2022-10-16T02:45:19;17.77;;;8.80;;
73359;SDS011;63092;43.582;19.528;2022-10-16T02:47:45;16.52;;;8.27;;
73359;SDS011;63092;43.582;19.528;2022-10-16T02:50:11;19.17;;;9.88;;
73359;SDS011;63092;43.582;19.528;2022-10-16T02:52:37;17.10;;;9.43;;
73359;SDS011;63092;43.582;19.528;2022-10-16T02:55:03;16.15;;;8.52;;
73359;SDS011;63092;43.582;19.528;2022-10-16T02:57:29;14.07;;;8.80;;
73359;SDS011;63092;43.582;19.528;2022-10-16T02:59:56;17.17;;;9.38;;
73359;SDS011;63092;43.582;19.528;2022-10-16T03:02:21;16.45;;;9.50;;
73359;SDS011;63092;43.582;19.528;2022-10-16T03:04:47;16.98;;;9.68;;
73359;SDS011;63092;43.582;19.528;2022-10-16T03:07:13;16.05;;;9.52;;
73359;SDS011;63092;43.582;19.528;2022-10-16T03:09:39;16.58;;;9.55;;
73359;SDS011;63092;43.582;19.528;2022-10-16T03:12:04;25.85;;;10.90;;
73359;SDS011;63092;43.582;19.528;2022-10-16T03:14:30;18.77;;;10.70;;
73359;SDS011;63092;43.582;19.528;2022-10-16T03:16:56;22.38;;;10.73;;
73359;SDS011;63092;43.582;19.528;2022-10-16T03:19:21;20.90;;;11.30;;
73359;SDS011;63092;43.582;19.528;2022-10-16T03:21:47;20.35;;;10.38;;
73359;SDS011;63092;43.582;19.528;2022-10-16T03:24:13;19.92;;;10.77;;
73359;SDS011;63092;43.582;19.528;2022-10-16T03:26:38;19.02;;;10.20;;
73359;SDS011;63092;43.582;19.528;2022-10-16T03:29:04;24.00;;;11.77;;
73359;SDS011;63092;43.582;19.528;2022-10-16T03:31:30;21.33;;;10.93;;
73359;SDS011;63092;43.582;19.528;2022-10-16T03:33:56;19.88;;;9.80;;
73359;SDS011;63092;43.582;19.528;2022-10-16T03:36:22;17.10;;;9.75;;
73359;SDS011;63092;43.582;19.528;2022-10-16T03:38:47;15.90;;;8.35;;
73359;SDS011;63092;43.582;19.528;2022-10-16T03:41:13;16.80;;;8.45;;
73359;SDS011;63092;43.582;19.528;2022-10-16T03:43:39;15.73;;;8.52;;
73359;SDS011;63092;43.582;19.528;2022-10-16T03:46:05;14.95;;;8.55;;
73359;SDS011;63092;43.582;19.528;2022-10-16T03:48:31;14.68;;;8.70;;
73359;SDS011;63092;43.582;19.528;2022-10-16T03:50:57;16.10;;;8.52;;
73359;SDS011;63092;43.582;19.528;2022-10-16T03:53:23;14.15;;;8.00;;
73359;SDS011;63092;43.582;19.528;2022-10-16T03:55:49;14.85;;;8.20;;
73359;SDS011;63092;43.582;19.528;2022-10-16T03:58:15;14.95;;;8.25;;
73359;SDS011;63092;43.582;19.528;2022-10-16T04:00:41;15.63;;;8.43;;
73359;SDS011;63092;43.582;19.528;2022-10-16T04:03:08;15.75;;;8.68;;
73359;SDS011;63092;43.582;19.528;2022-10-16T04:05:34;15.75;;;8.80;;
73359;SDS011;63092;43.582;19.528;2022-10-16T04:08:00;17.52;;;9.63;;
73359;SDS011;63092;43.582;19.528;2022-10-16T04:10:26;16.02;;;8.95;;
73359;SDS011;63092;43.582;19.528;2022-10-16T04:12:52;21.48;;;10.15;;
73359;SDS011;63092;43.582;19.528;2022-10-16T04:15:19;16.67;;;9.25;;
73359;SDS011;63092;43.582;19.528;2022-10-16T04:17:45;17.35;;;9.95;;
73359;SDS011;63092;43.582;19.528;2022-10-16T04:20:11;14.40;;;8.32;;
73359;SDS011;63092;43.582;19.528;2022-10-16T04:22:37;16.05;;;9.07;;
73359;SDS011;63092;43.582;19.528;2022-10-16T04:25:02;15.43;;;8.95;;
73359;SDS011;63092;43.582;19.528;2022-10-16T04:27:28;15.45;;;9.45;;
73359;SDS011;63092;43.582;19.528;2022-10-16T04:29:56;18.55;;;8.70;;
73359;SDS011;63092;43.582;19.528;2022-10-16T04:32:22;19.23;;;9.98;;
73359;SDS011;63092;43.582;19.528;2022-10-16T04:34:48;17.83;;;10.27;;
73359;SDS011;63092;43.582;19.528;2022-10-16T04:37:14;18.85;;;9.68;;
73359;SDS011;63092;43.582;19.528;2022-10-16T04:39:39;20.98;;;10.07;;
73359;SDS011;63092;43.582;19.528;2022-10-16T04:42:05;16.65;;;9.45;;
73359;SDS011;63092;43.582;19.528;2022-10-16T04:44:31;31.73;;;11.40;;
73359;SDS011;63092;43.582;19.528;2022-10-16T04:46:57;15.35;;;8.57;;
73359;SDS011;63092;43.582;19.528;2022-10-16T04:49:22;16.27;;;9.52;;
73359;SDS011;63092;43.582;19.528;2022-10-16T04:51:48;14.00;;;8.10;;
73359;SDS011;63092;43.582;19.528;2022-10-16T04:54:14;17.35;;;9.38;;
73359;SDS011;63092;43.582;19.528;2022-10-16T04:56:40;16.77;;;9.07;;
73359;SDS011;63092;43.582;19.528;2022-10-16T04:59:12;18.30;;;9.40;;
73359;SDS011;63092;43.582;19.528;2022-10-16T05:01:38;17.70;;;9.00;;
73359;SDS011;63092;43.582;19.528;2022-10-16T05:04:04;15.63;;;8.98;;
73359;SDS011;63092;43.582;19.528;2022-10-16T05:06:30;16.25;;;8.85;;
73359;SDS011;63092;43.582;19.528;2022-10-16T05:08:56;15.18;;;8.73;;
73359;SDS011;63092;43.582;19.528;2022-10-16T05:11:21;17.42;;;9.45;;
73359;SDS011;63092;43.582;19.528;2022-10-16T05:13:47;14.82;;;8.48;;
73359;SDS011;63092;43.582;19.528;2022-10-16T05:16:13;17.60;;;9.20;;
73359;SDS011;63092;43.582;19.528;2022-10-16T05:18:38;17.38;;;10.15;;
73359;SDS011;63092;43.582;19.528;2022-10-16T05:21:04;17.88;;;9.35;;
73359;SDS011;63092;43.582;19.528;2022-10-16T05:23:31;14.80;;;8.85;;
73359;SDS011;63092;43.582;19.528;2022-10-16T05:25:57;16.65;;;9.35;;
73359;SDS011;63092;43.582;19.528;2022-10-16T05:28:24;15.50;;;8.43;;
73359;SDS011;63092;43.582;19.528;2022-10-16T05:30:50;15.77;;;9.50;;
73359;SDS011;63092;43.582;19.528;2022-10-16T05:33:16;16.73;;;8.52;;
73359;SDS011;63092;43.582;19.528;2022-10-16T05:35:42;14.75;;;8.40;;
73359;SDS011;63092;43.582;19.528;2022-10-16T05:38:08;13.40;;;8.70;;
73359;SDS011;63092;43.582;19.528;2022-10-16T05:40:34;17.50;;;9.07;;
73359;SDS011;63092;43.582;19.528;2022-10-16T05:43:00;18.73;;;9.43;;
73359;SDS011;63092;43.582;19.528;2022-10-16T05:45:26;17.13;;;9.13;;
73359;SDS011;63092;43.582;19.528;2022-10-16T05:47:51;16.17;;;9.23;;
73359;SDS011;63092;43.582;19.528;2022-10-16T05:50:17;15.27;;;8.98;;
73359;SDS011;63092;43.582;19.528;2022-10-16T05:52:43;16.40;;;9.40;;
73359;SDS011;63092;43.582;19.528;2022-10-16T05:55:09;14.73;;;9.30;;
73359;SDS011;63092;43.582;19.528;2022-10-16T05:57:34;17.92;;;10.35;;
73359;SDS011;63092;43.582;19.528;2022-10-16T06:00:00;14.38;;;8.75;;
73359;SDS011;63092;43.582;19.528;2022-10-16T06:02:26;15.30;;;9.10;;
73359;SDS011;63092;43.582;19.528;2022-10-16T06:04:52;34.75;;;18.00;;
73359;SDS011;63092;43.582;19.528;2022-10-16T06:07:21;49.50;;;21.40;;
73359;SDS011;63092;43.582;19.528;2022-10-16T06:09:48;21.45;;;11.85;;
73359;SDS011;63092;43.582;19.528;2022-10-16T06:12:15;42.47;;;19.63;;
73359;SDS011;63092;43.582;19.528;2022-10-16T06:14:40;19.20;;;10.50;;
73359;SDS011;63092;43.582;19.528;2022-10-16T06:17:06;20.33;;;10.93;;
73359;SDS011;63092;43.582;19.528;2022-10-16T06:19:32;23.75;;;12.98;;
73359;SDS011;63092;43.582;19.528;2022-10-16T06:21:58;20.23;;;12.93;;
73359;SDS011;63092;43.582;19.528;2022-10-16T06:24:24;18.83;;;10.02;;
73359;SDS011;63092;43.582;19.528;2022-10-16T06:26:50;18.60;;;10.75;;
73359;SDS011;63092;43.582;19.528;2022-10-16T06:29:16;16.55;;;10.85;;
73359;SDS011;63092;43.582;19.528;2022-10-16T06:31:42;16.95;;;10.75;;
73359;SDS011;63092;43.582;19.528;2022-10-16T06:34:08;16.08;;;9.80;;
73359;SDS011;63092;43.582;19.528;2022-10-16T06:36:36;19.58;;;11.50;;
73359;SDS011;63092;43.582;19.528;2022-10-16T06:39:03;15.77;;;9.32;;
73359;SDS011;63092;43.582;19.528;2022-10-16T06:41:30;16.77;;;10.38;;
73359;SDS011;63092;43.582;19.528;2022-10-16T06:43:56;13.60;;;8.88;;
73359;SDS011;63092;43.582;19.528;2022-10-16T06:46:22;16.52;;;9.27;;
73359;SDS011;63092;43.582;19.528;2022-10-16T06:48:49;15.60;;;9.52;;
73359;SDS011;63092;43.582;19.528;2022-10-16T06:51:19;15.82;;;10.10;;
73359;SDS011;63092;43.582;19.528;2022-10-16T06:53:49;15.70;;;9.75;;
73359;SDS011;63092;43.582;19.528;2022-10-16T06:56:26;16.10;;;10.02;;
73359;SDS011;63092;43.582;19.528;2022-10-16T06:58:53;28.33;;;19.27;;
73359;SDS011;63092;43.582;19.528;2022-10-16T07:01:21;15.18;;;9.48;;
73359;SDS011;63092;43.582;19.528;2022-10-16T07:03:48;17.17;;;10.95;;
73359;SDS011;63092;43.582;19.528;2022-10-16T07:06:15;16.75;;;9.90;;
73359;SDS011;63092;43.582;19.528;2022-10-16T07:08:44;15.23;;;9.40;;
73359;SDS011;63092;43.582;19.528;2022-10-16T07:11:14;16.45;;;9.68;;
73359;SDS011;63092;43.582;19.528;2022-10-16T07:13:42;27.55;;;22.35;;
73359;SDS011;63092;43.582;19.528;2022-10-16T07:18:38;14.30;;;9.30;;
73359;SDS011;63092;43.582;19.528;2022-10-16T07:23:32;14.68;;;9.40;;
73359;SDS011;63092;43.582;19.528;2022-10-16T07:25:58;15.23;;;9.40;;
73359;SDS011;63092;43.582;19.528;2022-10-16T07:28:23;13.40;;;9.13;;
73359;SDS011;63092;43.582;19.528;2022-10-16T07:30:49;15.30;;;9.95;;
73359;SDS011;63092;43.582;19.528;2022-10-16T07:33:15;18.80;;;10.25;;
73359;SDS011;63092;43.582;19.528;2022-10-16T07:36:14;23.85;;;16.20;;
73359;SDS011;63092;43.582;19.528;2022-10-16T07:38:33;20.50;;;12.40;;
73359;SDS011;63092;43.582;19.528;2022-10-16T07:40:59;15.75;;;10.13;;
73359;SDS011;63092;43.582;19.528;2022-10-16T07:43:29;27.00;;;15.20;;
73359;SDS011;63092;43.582;19.528;2022-10-16T07:45:55;44.35;;;20.38;;
73359;SDS011;63092;43.582;19.528;2022-10-16T07:48:21;47.85;;;20.17;;
73359;SDS011;63092;43.582;19.528;2022-10-16T07:50:48;31.35;;;16.23;;
73359;SDS011;63092;43.582;19.528;2022-10-16T07:53:14;31.45;;;16.25;;
73359;SDS011;63092;43.582;19.528;2022-10-16T07:55:40;22.88;;;12.80;;
73359;SDS011;63092;43.582;19.528;2022-10-16T07:58:06;20.35;;;11.63;;
73359;SDS011;63092;43.582;19.528;2022-10-16T08:00:32;20.35;;;11.48;;
73359;SDS011;63092;43.582;19.528;2022-10-16T08:02:58;19.50;;;12.85;;
73359;SDS011;63092;43.582;19.528;2022-10-16T08:05:30;19.40;;;12.05;;
73359;SDS011;63092;43.582;19.528;2022-10-16T08:07:57;32.28;;;15.95;;
73359;SDS011;63092;43.582;19.528;2022-10-16T08:10:24;18.95;;;12.10;;
73359;SDS011;63092;43.582;19.528;2022-10-16T08:12:51;26.25;;;14.50;;
73359;SDS011;63092;43.582;19.528;2022-10-16T08:15:17;30.65;;;18.05;;
73359;SDS011;63092;43.582;19.528;2022-10-16T08:17:43;34.72;;;21.48;;
73359;SDS011;63092;43.582;19.528;2022-10-16T08:20:09;21.20;;;13.13;;
73359;SDS011;63092;43.582;19.528;2022-10-16T08:22:36;21.08;;;13.57;;
73359;SDS011;63092;43.582;19.528;2022-10-16T08:25:01;21.20;;;12.43;;
73359;SDS011;63092;43.582;19.528;2022-10-16T08:27:31;24.73;;;14.20;;
73359;SDS011;63092;43.582;19.528;2022-10-16T08:29:57;17.40;;;9.98;;
73359;SDS011;63092;43.582;19.528;2022-10-16T08:32:23;21.45;;;12.25;;
73359;SDS011;63092;43.582;19.528;2022-10-16T08:34:48;22.58;;;12.40;;
73359;SDS011;63092;43.582;19.528;2022-10-16T08:37:14;20.52;;;11.95;;
73359;SDS011;63092;43.582;19.528;2022-10-16T08:39:40;23.50;;;14.88;;
73359;SDS011;63092;43.582;19.528;2022-10-16T08:47:25;13.10;;;8.75;;
73359;SDS011;63092;43.582;19.528;2022-10-16T08:50:14;14.63;;;9.55;;
73359;SDS011;63092;43.582;19.528;2022-10-16T08:52:54;32.22;;;18.02;;
73359;SDS011;63092;43.582;19.528;2022-10-16T08:55:29;27.42;;;14.82;;
73359;SDS011;63092;43.582;19.528;2022-10-16T08:58:07;37.88;;;22.38;;
73359;SDS011;63092;43.582;19.528;2022-10-16T09:00:47;57.83;;;29.85;;
73359;SDS011;63092;43.582;19.528;2022-10-16T09:23:45;12.27;;;7.90;;
73359;SDS011;63092;43.582;19.528;2022-10-16T09:25:51;12.40;;;7.95;;
73359;SDS011;63092;43.582;19.528;2022-10-16T09:28:19;12.50;;;8.20;;
73359;SDS011;63092;43.582;19.528;2022-10-16T09:30:45;9.30;;;6.45;;
73359;SDS011;63092;43.582;19.528;2022-10-16T09:33:13;11.15;;;7.65;;
73359;SDS011;63092;43.582;19.528;2022-10-16T09:35:42;13.95;;;7.43;;
73359;SDS011;63092;43.582;19.528;2022-10-16T09:38:30;15.13;;;7.57;;
73359;SDS011;63092;43.582;19.528;2022-10-16T09:40:58;12.02;;;7.13;;
73359;SDS011;63092;43.582;19.528;2022-10-16T09:43:26;18.58;;;7.65;;
73359;SDS011;63092;43.582;19.528;2022-10-16T09:46:33;13.73;;;6.70;;
73359;SDS011;63092;43.582;19.528;2022-10-16T09:49:05;15.32;;;6.60;;
73359;SDS011;63092;43.582;19.528;2022-10-16T09:51:45;10.45;;;6.47;;
73359;SDS011;63092;43.582;19.528;2022-10-16T09:54:15;10.40;;;6.35;;
73359;SDS011;63092;43.582;19.528;2022-10-16T09:56:42;12.23;;;6.90;;
73359;SDS011;63092;43.582;19.528;2022-10-16T09:59:15;20.95;;;11.48;;
73359;SDS011;63092;43.582;19.528;2022-10-16T10:01:48;15.93;;;8.95;;
73359;SDS011;63092;43.582;19.528;2022-10-16T10:04:17;25.73;;;15.52;;
73359;SDS011;63092;43.582;19.528;2022-10-16T10:06:47;17.55;;;11.77;;
73359;SDS011;63092;43.582;19.528;2022-10-16T10:11:53;21.73;;;7.13;;
73359;SDS011;63092;43.582;19.528;2022-10-16T10:14:23;38.83;;;11.05;;
73359;SDS011;63092;43.582;19.528;2022-10-16T10:17:13;78.65;;;17.33;;
73359;SDS011;63092;43.582;19.528;2022-10-16T10:24:46;9.50;;;4.70;;
73359;SDS011;63092;43.582;19.528;2022-10-16T10:27:38;7.75;;;4.50;;
73359;SDS011;63092;43.582;19.528;2022-10-16T10:38:50;148.13;;;26.08;;
73359;SDS011;63092;43.582;19.528;2022-10-16T10:52:19;148.45;;;25.08;;
73359;SDS011;63092;43.582;19.528;2022-10-16T11:07:43;15.20;;;5.70;;
73359;SDS011;63092;43.582;19.528;2022-10-16T11:10:25;12.15;;;6.30;;
73359;SDS011;63092;43.582;19.528;2022-10-16T11:13:01;10.13;;;6.20;;
73359;SDS011;63092;43.582;19.528;2022-10-16T11:15:42;14.88;;;6.65;;
73359;SDS011;63092;43.582;19.528;2022-10-16T11:18:20;15.02;;;9.27;;
73359;SDS011;63092;43.582;19.528;2022-10-16T11:21:11;12.80;;;7.97;;
73359;SDS011;63092;43.582;19.528;2022-10-16T11:23:56;18.90;;;7.63;;
73359;SDS011;63092;43.582;19.528;2022-10-16T11:26:35;14.05;;;8.57;;
73359;SDS011;63092;43.582;19.528;2022-10-16T11:29:12;53.33;;;26.95;;
73359;SDS011;63092;43.582;19.528;2022-10-16T11:31:57;24.90;;;13.65;;
73359;SDS011;63092;43.582;19.528;2022-10-16T11:34:33;46.13;;;27.38;;
73359;SDS011;63092;43.582;19.528;2022-10-16T11:37:05;33.83;;;20.70;;
73359;SDS011;63092;43.582;19.528;2022-10-16T11:39:37;23.63;;;15.40;;
73359;SDS011;63092;43.582;19.528;2022-10-16T11:42:16;16.23;;;10.43;;
73359;SDS011;63092;43.582;19.528;2022-10-16T11:50:53;30.65;;;15.90;;
73359;SDS011;63092;43.582;19.528;2022-10-16T11:53:16;16.65;;;9.85;;
73359;SDS011;63092;43.582;19.528;2022-10-16T11:56:05;16.70;;;10.68;;
73359;SDS011;63092;43.582;19.528;2022-10-16T11:58:32;17.05;;;12.38;;
73359;SDS011;63092;43.582;19.528;2022-10-16T12:09:13;11.27;;;5.32;;
73359;SDS011;63092;43.582;19.528;2022-10-16T12:11:46;11.13;;;7.53;;
73359;SDS011;63092;43.582;19.528;2022-10-16T12:16:59;21.05;;;8.05;;
73359;SDS011;63092;43.582;19.528;2022-10-16T12:19:26;9.90;;;6.10;;
73359;SDS011;63092;43.582;19.528;2022-10-16T12:21:58;27.05;;;7.45;;
73359;SDS011;63092;43.582;19.528;2022-10-16T12:26:59;87.25;;;20.20;;
73359;SDS011;63092;43.582;19.528;2022-10-16T12:32:02;49.47;;;19.70;;
73359;SDS011;63092;43.582;19.528;2022-10-16T12:35:05;10.45;;;6.45;;
73359;SDS011;63092;43.582;19.528;2022-10-16T12:37:42;11.57;;;6.15;;
73359;SDS011;63092;43.582;19.528;2022-10-16T12:40:22;24.90;;;9.88;;
73359;SDS011;63092;43.582;19.528;2022-10-16T12:42:53;27.88;;;15.20;;
73359;SDS011;63092;43.582;19.528;2022-10-16T12:45:32;26.58;;;15.77;;
73359;SDS011;63092;43.582;19.528;2022-10-16T12:48:00;34.58;;;21.65;;
73359;SDS011;63092;43.582;19.528;2022-10-16T12:53:01;73.07;;;41.20;;
73359;SDS011;63092;43.582;19.528;2022-10-16T12:55:32;18.15;;;12.20;;
73359;SDS011;63092;43.582;19.528;2022-10-16T13:01:02;21.35;;;11.90;;
73359;SDS011;63092;43.582;19.528;2022-10-16T13:06:32;12.48;;;7.78;;
73359;SDS011;63092;43.582;19.528;2022-10-16T13:09:07;19.77;;;11.40;;
73359;SDS011;63092;43.582;19.528;2022-10-16T13:14:43;8.40;;;5.20;;
73359;SDS011;63092;43.582;19.528;2022-10-16T13:30:29;8.48;;;4.68;;
73359;SDS011;63092;43.582;19.528;2022-10-16T13:35:29;8.27;;;5.40;;
73359;SDS011;63092;43.582;19.528;2022-10-16T13:43:18;7.07;;;4.55;;
73359;SDS011;63092;43.582;19.528;2022-10-16T13:45:57;7.45;;;4.72;;
73359;SDS011;63092;43.582;19.528;2022-10-16T13:48:23;10.85;;;6.15;;
73359;SDS011;63092;43.582;19.528;2022-10-16T13:50:58;10.10;;;6.20;;
73359;SDS011;63092;43.582;19.528;2022-10-16T13:53:25;8.15;;;4.93;;
73359;SDS011;63092;43.582;19.528;2022-10-16T13:55:51;9.13;;;5.70;;
73359;SDS011;63092;43.582;19.528;2022-10-16T13:58:17;6.95;;;4.93;;
73359;SDS011;63092;43.582;19.528;2022-10-16T14:00:56;9.38;;;6.55;;
73359;SDS011;63092;43.582;19.528;2022-10-16T14:03:24;7.50;;;4.35;;
73359;SDS011;63092;43.582;19.528;2022-10-16T14:05:53;7.35;;;4.43;;
73359;SDS011;63092;43.582;19.528;2022-10-16T14:10:49;10.10;;;6.22;;
73359;SDS011;63092;43.582;19.528;2022-10-16T14:13:28;10.95;;;7.22;;
73359;SDS011;63092;43.582;19.528;2022-10-16T14:15:55;10.43;;;5.97;;
73359;SDS011;63092;43.582;19.528;2022-10-16T14:18:24;14.85;;;8.07;;
73359;SDS011;63092;43.582;19.528;2022-10-16T14:20:52;18.50;;;10.40;;
73359;SDS011;63092;43.582;19.528;2022-10-16T14:25:46;14.60;;;8.63;;
73359;SDS011;63092;43.582;19.528;2022-10-16T14:30:55;11.10;;;7.68;;
73359;SDS011;63092;43.582;19.528;2022-10-16T14:38:29;15.10;;;9.70;;
73359;SDS011;63092;43.582;19.528;2022-10-16T14:40:57;16.27;;;10.02;;
73359;SDS011;63092;43.582;19.528;2022-10-16T14:43:39;21.13;;;13.98;;
73359;SDS011;63092;43.582;19.528;2022-10-16T14:48:43;22.17;;;14.93;;
73359;SDS011;63092;43.582;19.528;2022-10-16T14:51:13;25.48;;;11.00;;
73359;SDS011;63092;43.582;19.528;2022-10-16T14:53:40;26.35;;;15.10;;
73359;SDS011;63092;43.582;19.528;2022-10-16T14:56:07;27.05;;;15.02;;
73359;SDS011;63092;43.582;19.528;2022-10-16T14:58:39;35.90;;;14.65;;
73359;SDS011;63092;43.582;19.528;2022-10-16T15:01:05;20.05;;;10.32;;
73359;SDS011;63092;43.582;19.528;2022-10-16T15:03:33;21.63;;;9.10;;
73359;SDS011;63092;43.582;19.528;2022-10-16T15:05:59;20.67;;;10.32;;
73359;SDS011;63092;43.582;19.528;2022-10-16T15:08:25;14.77;;;8.80;;
73359;SDS011;63092;43.582;19.528;2022-10-16T15:10:50;14.43;;;8.18;;
73359;SDS011;63092;43.582;19.528;2022-10-16T15:13:16;20.75;;;12.25;;
73359;SDS011;63092;43.582;19.528;2022-10-16T15:15:45;26.25;;;15.95;;
73359;SDS011;63092;43.582;19.528;2022-10-16T15:18:14;34.40;;;16.25;;
73359;SDS011;63092;43.582;19.528;2022-10-16T15:20:44;32.38;;;15.73;;
73359;SDS011;63092;43.582;19.528;2022-10-16T15:23:14;19.02;;;10.43;;
73359;SDS011;63092;43.582;19.528;2022-10-16T15:25:49;13.18;;;8.48;;
73359;SDS011;63092;43.582;19.528;2022-10-16T15:28:15;24.90;;;12.90;;
73359;SDS011;63092;43.582;19.528;2022-10-16T15:30:42;30.95;;;17.67;;
73359;SDS011;63092;43.582;19.528;2022-10-16T15:33:28;35.92;;;21.08;;
73359;SDS011;63092;43.582;19.528;2022-10-16T15:35:58;78.68;;;23.85;;
73359;SDS011;63092;43.582;19.528;2022-10-16T15:38:24;80.07;;;24.23;;
73359;SDS011;63092;43.582;19.528;2022-10-16T15:40:51;19.80;;;10.85;;
73359;SDS011;63092;43.582;19.528;2022-10-16T15:43:17;18.33;;;12.02;;
73359;SDS011;63092;43.582;19.528;2022-10-16T15:45:43;22.70;;;16.35;;
73359;SDS011;63092;43.582;19.528;2022-10-16T15:48:17;32.15;;;19.17;;
73359;SDS011;63092;43.582;19.528;2022-10-16T15:50:42;39.08;;;24.38;;
73359;SDS011;63092;43.582;19.528;2022-10-16T15:53:08;30.20;;;18.92;;
73359;SDS011;63092;43.582;19.528;2022-10-16T15:55:34;24.60;;;15.88;;
73359;SDS011;63092;43.582;19.528;2022-10-16T15:58:02;27.38;;;16.85;;
73359;SDS011;63092;43.582;19.528;2022-10-16T16:00:29;37.92;;;18.98;;
73359;SDS011;63092;43.582;19.528;2022-10-16T16:02:55;27.13;;;16.98;;
73359;SDS011;63092;43.582;19.528;2022-10-16T16:05:21;31.20;;;20.38;;
73359;SDS011;63092;43.582;19.528;2022-10-16T16:07:48;33.88;;;22.17;;
73359;SDS011;63092;43.582;19.528;2022-10-16T16:10:15;42.30;;;24.55;;
73359;SDS011;63092;43.582;19.528;2022-10-16T16:12:41;30.77;;;20.33;;
73359;SDS011;63092;43.582;19.528;2022-10-16T16:15:08;27.48;;;19.15;;
73359;SDS011;63092;43.582;19.528;2022-10-16T16:17:35;36.65;;;22.40;;
73359;SDS011;63092;43.582;19.528;2022-10-16T16:20:02;44.95;;;26.52;;
73359;SDS011;63092;43.582;19.528;2022-10-16T16:22:29;34.67;;;23.73;;
73359;SDS011;63092;43.582;19.528;2022-10-16T16:24:55;35.28;;;19.08;;
73359;SDS011;63092;43.582;19.528;2022-10-16T16:27:21;31.35;;;18.83;;
73359;SDS011;63092;43.582;19.528;2022-10-16T16:29:46;38.63;;;21.35;;
73359;SDS011;63092;43.582;19.528;2022-10-16T16:32:12;39.72;;;24.25;;
73359;SDS011;63092;43.582;19.528;2022-10-16T16:34:38;36.92;;;22.13;;
73359;SDS011;63092;43.582;19.528;2022-10-16T16:37:04;35.75;;;21.58;;
73359;SDS011;63092;43.582;19.528;2022-10-16T16:39:30;41.33;;;23.85;;
73359;SDS011;63092;43.582;19.528;2022-10-16T16:41:56;43.00;;;24.20;;
73359;SDS011;63092;43.582;19.528;2022-10-16T16:44:23;47.03;;;27.35;;
73359;SDS011;63092;43.582;19.528;2022-10-16T16:46:49;45.00;;;26.55;;
73359;SDS011;63092;43.582;19.528;2022-10-16T16:49:15;43.33;;;25.23;;
73359;SDS011;63092;43.582;19.528;2022-10-16T16:51:41;45.45;;;28.00;;
73359;SDS011;63092;43.582;19.528;2022-10-16T16:54:07;51.47;;;28.98;;
73359;SDS011;63092;43.582;19.528;2022-10-16T16:56:36;46.55;;;27.23;;
73359;SDS011;63092;43.582;19.528;2022-10-16T16:59:02;52.92;;;29.65;;
73359;SDS011;63092;43.582;19.528;2022-10-16T17:01:29;58.05;;;34.75;;
73359;SDS011;63092;43.582;19.528;2022-10-16T17:03:56;48.08;;;28.33;;
73359;SDS011;63092;43.582;19.528;2022-10-16T17:06:25;54.17;;;29.80;;